createdAt,value
2023-04-01T00:04:16.874Z,84.73
2023-04-01T00:09:17.206Z,84.66
2023-04-01T00:14:16.853Z,84.39
2023-04-01T00:19:16.639Z,84.91
2023-04-01T00:24:16.034Z,85.15
2023-04-01T00:29:15.754Z,84.37
2023-04-01T00:34:15.402Z,84.63
2023-04-01T00:39:14.539Z,84.75
2023-04-01T00:44:25.949Z,85.52
2023-04-01T00:49:32.664Z,85.70
2023-04-01T00:54:34.618Z,84.83
2023-04-01T00:59:39.708Z,84.82
2023-04-01T01:04:39.383Z,84.65
2023-04-01T01:09:54.806Z,85.72
2023-04-01T01:15:09.455Z,85.86
2023-04-01T01:20:53.211Z,85.66
2023-04-01T01:26:09.128Z,85.83
2023-04-01T01:31:20.903Z,85.65
2023-04-01T01:36:26.147Z,85.29
2023-04-01T01:41:29.356Z,85.79
2023-04-01T01:46:33.384Z,86.18
2023-04-01T01:51:33.002Z,86.55
2023-04-01T01:56:37.762Z,86.59
2023-04-01T02:01:42.476Z,86.19
2023-04-01T02:06:56.106Z,85.73
2023-04-01T02:12:01.741Z,86.14
2023-04-01T02:17:08.348Z,86.11
2023-04-01T02:22:16.525Z,87.18
2023-04-01T02:27:16.691Z,86.80
2023-04-01T02:32:17.084Z,86.97
2023-04-01T02:37:17.857Z,86.14
2023-04-01T02:42:18.950Z,86.81
2023-04-01T02:47:18.854Z,87.76
2023-04-01T02:52:19.443Z,87.34
2023-04-01T02:57:18.898Z,87.53
2023-04-01T03:02:18.823Z,88.03
2023-04-01T03:07:18.112Z,87.82
2023-04-01T03:12:17.971Z,86.15
2023-04-01T03:17:22.254Z,86.74
2023-04-01T03:22:22.386Z,87.92
2023-04-01T03:27:22.030Z,87.45
2023-04-01T03:32:21.101Z,87.45
2023-04-01T03:37:21.053Z,87.47
2023-04-01T03:42:19.991Z,87.30
2023-04-01T03:47:19.654Z,88.51
2023-04-01T03:52:19.294Z,88.95
2023-04-01T03:57:18.869Z,88.90
2023-04-01T04:02:18.213Z,89.26
2023-04-01T04:07:18.077Z,88.66
2023-04-01T04:12:35.411Z,88.94
2023-04-01T04:17:34.684Z,88.33
2023-04-01T04:22:33.641Z,88.65
2023-04-01T04:27:33.620Z,89.19
2023-04-01T04:32:40.565Z,89.08
2023-04-01T04:37:39.907Z,88.96
2023-04-01T04:42:39.583Z,88.71
2023-04-01T04:47:42.092Z,88.65
2023-04-01T04:52:40.871Z,88.66
2023-04-01T04:57:40.931Z,88.00
2023-04-01T05:02:39.807Z,88.18
2023-04-01T05:07:39.201Z,88.29
2023-04-01T05:12:39.846Z,88.03
2023-04-01T05:17:40.918Z,88.28
2023-04-01T05:22:40.634Z,87.71
2023-04-01T05:27:40.676Z,88.28
2023-04-01T05:32:39.420Z,88.46
2023-04-01T05:37:40.936Z,88.39
2023-04-01T05:42:41.226Z,87.89
2023-04-01T05:47:41.218Z,87.66
2023-04-01T05:52:41.521Z,88.09
2023-04-01T05:57:41.054Z,88.48
2023-04-01T06:02:43.063Z,88.54
2023-04-01T06:07:43.484Z,88.12
2023-04-01T06:13:03.814Z,88.11
2023-04-01T06:18:48.768Z,87.27
2023-04-01T06:24:07.443Z,87.60
2023-04-01T06:29:31.547Z,87.46
2023-04-01T06:34:55.522Z,87.23
2023-04-01T06:40:45.692Z,86.34
2023-04-01T06:45:55.841Z,86.21
2023-04-01T06:51:30.747Z,86.12
2023-04-01T06:56:53.411Z,85.15
2023-04-01T07:01:59.410Z,84.08
2023-04-01T07:07:02.368Z,84.12
2023-04-01T07:12:15.686Z,84.02
2023-04-01T07:17:37.933Z,82.92
2023-04-01T07:22:41.582Z,81.93
2023-04-01T07:28:06.007Z,80.60
2023-04-01T07:33:13.752Z,80.69
2023-04-01T07:38:28.845Z,79.68
2023-04-01T07:43:56.678Z,79.89
2023-04-01T07:49:10.364Z,79.95
2023-04-01T07:54:22.294Z,79.89
2023-04-01T07:59:37.399Z,79.50
2023-04-01T08:05:07.218Z,79.35
2023-04-01T08:10:19.854Z,78.84
2023-04-01T08:15:55.949Z,77.52
2023-04-01T08:21:16.352Z,77.59
2023-04-01T08:26:28.998Z,77.83
2023-04-01T08:31:38.563Z,77.96
2023-04-01T08:36:44.522Z,77.96
2023-04-01T08:42:30.907Z,77.75
2023-04-01T08:47:59.291Z,78.32
2023-04-01T08:53:09.651Z,78.39
2023-04-01T08:58:51.606Z,77.12
2023-04-01T09:04:17.832Z,77.22
2023-04-01T09:10:09.335Z,77.15
2023-04-01T09:15:57.174Z,76.84
2023-04-01T09:21:24.675Z,76.07
2023-04-01T09:26:47.428Z,76.69
2023-04-01T09:32:16.105Z,76.60
2023-04-01T09:37:56.606Z,76.68
2023-04-01T09:43:23.865Z,76.98
2023-04-01T09:49:02.156Z,76.97
2023-04-01T09:54:23.280Z,77.24
2023-04-01T09:59:56.980Z,77.36
2023-04-01T10:06:23.867Z,77.47
2023-04-01T10:12:10.313Z,77.49
2023-04-01T10:17:51.094Z,77.77
2023-04-01T10:23:30.625Z,78.04
2023-04-01T10:29:24.646Z,78.17
2023-04-01T10:35:04.638Z,78.29
2023-04-01T10:40:45.664Z,78.64
2023-04-01T10:47:28.596Z,78.67
2023-04-01T10:52:59.551Z,77.20
2023-04-01T10:59:30.480Z,76.18
2023-04-01T11:05:31.050Z,74.43
2023-04-01T11:11:37.151Z,73.83
2023-04-01T11:17:23.654Z,72.02
2023-04-01T11:22:53.022Z,71.75
2023-04-01T11:28:24.036Z,72.47
2023-04-01T11:33:33.952Z,73.65
2023-04-01T11:38:59.912Z,74.58
2023-04-01T11:44:28.282Z,75.42
2023-04-01T11:49:58.340Z,76.05
2023-04-01T11:55:31.682Z,76.44
2023-04-01T12:01:19.145Z,77.01
2023-04-01T12:06:28.347Z,77.04
2023-04-01T12:11:37.651Z,75.96
2023-04-01T12:16:53.755Z,74.46
2023-04-01T12:22:12.551Z,73.36
2023-04-01T12:27:41.196Z,72.45
2023-04-01T12:32:53.866Z,70.95
2023-04-01T12:38:08.499Z,71.76
2023-04-01T12:43:37.709Z,72.08
2023-04-01T12:49:37.658Z,71.74
2023-04-01T12:55:25.029Z,71.84
2023-04-01T13:00:57.516Z,71.80
2023-04-01T13:06:34.722Z,72.05
2023-04-01T13:11:54.982Z,72.40
2023-04-01T13:17:04.762Z,73.58
2023-04-01T13:22:17.362Z,74.40
2023-04-01T13:27:25.907Z,75.11
2023-04-01T13:32:44.836Z,75.72
2023-04-01T13:38:03.171Z,76.10
2023-04-01T13:43:14.354Z,76.41
2023-04-01T13:48:43.329Z,77.01
2023-04-01T13:54:49.873Z,77.25
2023-04-01T14:00:08.773Z,77.49
2023-04-01T14:05:43.399Z,78.09
2023-04-01T14:10:51.396Z,79.08
2023-04-01T14:16:10.688Z,79.49
2023-04-01T14:21:25.653Z,80.82
2023-04-01T14:26:47.558Z,80.75
2023-04-01T14:32:04.930Z,81.08
2023-04-01T14:37:41.292Z,80.97
2023-04-01T14:43:07.199Z,81.30
2023-04-01T14:48:25.650Z,81.91
2023-04-01T14:53:36.278Z,82.44
2023-04-01T14:58:51.815Z,81.91
2023-04-01T15:04:07.019Z,81.44
2023-04-01T15:09:22.254Z,81.82
2023-04-01T15:14:41.292Z,81.38
2023-04-01T15:20:06.914Z,81.40
2023-04-01T15:25:31.688Z,81.84
2023-04-01T15:30:40.655Z,81.79
2023-04-01T15:35:53.281Z,82.16
2023-04-01T15:41:05.245Z,81.99
2023-04-01T15:46:28.810Z,82.25
2023-04-01T15:51:46.273Z,82.17
2023-04-01T15:57:12.221Z,82.18
2023-04-01T16:02:24.139Z,82.28
2023-04-01T16:07:45.037Z,82.23
2023-04-01T16:13:02.776Z,82.46
2023-04-01T16:18:29.700Z,82.53
2023-04-01T16:23:40.039Z,82.74
2023-04-01T16:28:50.477Z,82.82
2023-04-01T16:34:00.381Z,82.90
2023-04-01T16:39:21.132Z,82.99
2023-04-01T16:44:25.472Z,82.88
2023-04-01T16:49:35.002Z,82.39
2023-04-01T16:54:47.122Z,82.67
2023-04-01T16:59:58.538Z,82.63
2023-04-01T17:05:06.620Z,82.67
2023-04-01T17:10:37.652Z,82.89
2023-04-01T17:15:48.138Z,82.67
2023-04-01T17:20:55.976Z,82.89
2023-04-01T17:26:23.024Z,83.04
2023-04-01T17:31:40.142Z,83.04
2023-04-01T17:36:55.879Z,82.93
2023-04-01T17:42:07.478Z,83.09
2023-04-01T17:47:38.962Z,83.14
2023-04-01T17:52:46.908Z,82.86
2023-04-01T17:57:57.439Z,82.53
2023-04-01T18:03:15.177Z,83.04
2023-04-01T18:08:26.431Z,82.72
2023-04-01T18:14:05.335Z,82.32
2023-04-01T18:19:17.863Z,83.05
2023-04-01T18:24:27.247Z,83.03
2023-04-01T18:29:42.776Z,83.31
2023-04-01T18:34:57.179Z,83.32
2023-04-01T18:40:05.086Z,83.21
2023-04-01T18:45:22.011Z,83.12
2023-04-01T18:50:32.908Z,83.43
2023-04-01T18:55:50.054Z,83.55
2023-04-01T19:00:56.291Z,83.04
2023-04-01T19:05:59.263Z,83.21
2023-04-01T19:11:12.226Z,83.59
2023-04-01T19:16:26.070Z,83.61
2023-04-01T19:21:34.831Z,83.59
2023-04-01T19:26:41.706Z,83.80
2023-04-01T19:31:54.660Z,84.32
2023-04-01T19:37:00.745Z,83.99
2023-04-01T19:42:14.972Z,83.83
2023-04-01T19:47:33.222Z,83.93
2023-04-01T19:52:42.183Z,83.83
2023-04-01T19:57:54.892Z,84.46
2023-04-01T20:03:15.253Z,84.82
2023-04-01T20:08:35.100Z,84.44
2023-04-01T20:13:54.520Z,84.63
2023-04-01T20:19:00.795Z,84.98
2023-04-01T20:24:10.607Z,85.15
2023-04-01T20:29:44.372Z,84.93
2023-04-01T20:35:13.244Z,84.93
2023-04-01T20:40:38.004Z,85.12
2023-04-01T20:45:48.354Z,85.22
2023-04-01T20:50:55.852Z,84.92
2023-04-01T20:56:41.072Z,84.79
2023-04-01T21:01:56.756Z,85.05
2023-04-01T21:07:17.332Z,84.99
2023-04-01T21:12:35.202Z,85.01
2023-04-01T21:17:59.179Z,85.14
2023-04-01T21:23:24.038Z,85.08
2023-04-01T21:28:52.583Z,85.02
2023-04-01T21:34:16.135Z,84.94
2023-04-01T21:39:51.109Z,84.83
2023-04-01T21:45:25.860Z,84.79
2023-04-01T21:51:04.202Z,84.41
2023-04-01T21:56:46.389Z,84.65
2023-04-01T22:02:23.276Z,83.90
2023-04-01T22:07:27.134Z,83.78
2023-04-01T22:12:38.691Z,84.11
2023-04-01T22:17:47.719Z,84.03
2023-04-01T22:23:10.666Z,83.99
2023-04-01T22:28:19.361Z,84.27
2023-04-01T22:33:32.397Z,84.42
2023-04-01T22:38:56.905Z,84.31
2023-04-01T22:43:59.756Z,84.23
2023-04-01T22:49:10.774Z,84.13
2023-04-01T22:54:21.725Z,84.05
2023-04-01T22:59:30.785Z,83.97
2023-04-01T23:04:38.269Z,83.91
2023-04-01T23:09:41.150Z,83.89
2023-04-01T23:15:04.418Z,83.69
2023-04-01T23:20:18.273Z,83.34
2023-04-01T23:25:33.563Z,83.39
2023-04-01T23:30:54.107Z,83.42
2023-04-01T23:35:56.569Z,83.42
2023-04-01T23:40:58.053Z,83.35
2023-04-01T23:45:57.998Z,83.31
2023-04-01T23:50:57.914Z,83.32
2023-04-01T23:55:58.206Z,83.25
